Portada
METAR-TAF:

METAR-TAF

Aeropuertos :

Aeropuerto Internacional de Maiquetía Simón Bolívar

Caracas, Venezuela

latitud: 10-36N, longitud: 066-59W, altitud: 43 m

Observación

El informe se hizo hace 46 minutos, a las 00:00 UTC
Viento 1 kt del sureste
Temperatura 27°C
Humedad 84%
Presión 1012 hPa
Visibilidad 10 km o más
Cielo nuboso a una altura de 1600 ft

METAR: SVMI 170000Z 14001KT 9999 BKN016 27/24 Q1012

Hora: 20:46 (00:46 UTC)

Pronóstico

El informe se hizo hace 2 horas y 46 minutos, a las 22:00 UTC
Pronóstico válido del 17 a las 00 UTC al 18 a las 00 UTC
Viento 3 kt del este
Visibilidad 10 km o más
Nubes dispersas a una altura de 1600 ft
Temporalmente
del 17 a las 01 UTC al 17 a las 05 UTC
Viento 3 kt del este
Nubes dispersas a una altura de 1600 ft

TAF: SVMI 162200Z 1700/1800 09003KT 9999 SCT016 TX31/18Z TN24/09Z TEMPO 1701/1705 09003KT SCT016

Observaciones y pronósticos meteorológicos de más de 4000 aeropuertos (mensajes METAR y TAF).

Los puntos amarillos y rojos representan las estaciones disponibles.

Ponga el ratón en el punto deseado para ver el nombre de la estación.

Haga clic para ver las observaciones y los pronósticos meteorológicos.

Para cambiar el mapa : haga clic en los botones verdes con una cruz de color negro para hacer un zoom, en el botón verde con un guión para alejar o en las flechas verdes para mapas adyacentes.


METAR-TAF: